Time;durP1;ratioP1;P1;durP2;ratioP2;P2;SDS_P1;SDS_P2;PMS_P1;PMS_P2;Temp;Humidity;BMP_temperature;BMP_pressure;BME280_temperature;BME280_humidity;BME280_pressure;Samples;Min_cycle;Max_cycle;Signal;HPM_P1;HPM_P2
2022/06/21 00:00:41;;;;;;;2.33;2.10;;;14.60;99.30;;;;;;5032609;28;20578;-49
2022/06/21 00:03:10;;;;;;;2.43;2.23;;;14.80;99.60;;;;;;5033022;28;20435;-41
2022/06/21 00:05:39;;;;;;;4.47;2.60;;;14.60;99.60;;;;;;5032833;28;20447;-43
2022/06/21 00:08:08;;;;;;;5.20;2.80;;;14.50;99.90;;;;;;5033023;28;20438;-41
2022/06/21 00:10:35;;;;;;;4.33;2.40;;;14.50;99.90;;;;;;5032411;28;20776;-41
2022/06/21 00:13:02;;;;;;;5.57;2.53;;;14.50;99.90;;;;;;5032620;28;20475;-43
2022/06/21 00:15:30;;;;;;;6.80;2.87;;;14.50;99.90;;;;;;5032887;28;20444;-42
2022/06/21 00:17:57;;;;;;;3.97;2.47;;;14.50;99.90;;;;;;5032472;28;20449;-41
2022/06/21 00:20:26;;;;;;;3.90;2.87;;;13.90;99.90;;;;;;5032287;28;20934;-43
2022/06/21 00:22:52;;;;;;;4.03;2.50;;;14.70;99.90;;;;;;5032675;28;20432;-41
2022/06/21 00:25:23;;;;;;;7.03;3.10;;;14.60;99.90;;;;;;5032558;28;20457;-41
2022/06/21 00:27:51;;;;;;;4.27;2.60;;;14.70;99.90;;;;;;5032730;28;20481;-40
2022/06/21 00:30:19;;;;;;;5.90;3.60;;;14.40;99.90;;;;;;5031645;28;20442;-41
2022/06/21 00:32:49;;;;;;;3.33;3.03;;;14.50;99.90;;;;;;5032362;28;20478;-44
2022/06/21 00:35:19;;;;;;;4.80;2.70;;;14.60;99.90;;;;;;5032312;28;20979;-43
2022/06/21 00:37:47;;;;;;;8.73;3.87;;;14.50;99.90;;;;;;5031033;28;20548;-43
2022/06/21 00:40:19;;;;;;;5.47;3.13;;;14.20;99.90;;;;;;5031879;28;20435;-42
2022/06/21 00:42:51;;;;;;;3.30;3.00;;;14.50;99.90;;;;;;5032252;28;20442;-44
2022/06/21 00:45:28;;;;;;;5.67;3.30;;;14.40;99.90;;;;;;5038142;22;20876;-47
2022/06/21 00:47:59;;;;;;;6.47;3.80;;;14.40;99.90;;;;;;5010917;28;20431;-45
2022/06/21 00:50:31;;;;;;;4.70;3.53;;;14.40;99.90;;;;;;5010714;28;20651;-46
2022/06/21 00:53:05;;;;;;;3.13;2.83;;;14.60;99.90;;;;;;5010740;28;20859;-45
2022/06/21 00:55:41;;;;;;;5.17;3.37;;;14.20;99.90;;;;;;5010759;28;20471;-44
2022/06/21 00:58:11;;;;;;;6.60;3.60;;;14.30;99.90;;;;;;5010878;28;20443;-46
2022/06/21 01:00:46;;;;;;;3.47;3.17;;;14.30;99.90;;;;;;4992734;28;20483;-45
2022/06/21 01:03:18;;;;;;;3.70;2.97;;;14.30;99.90;;;;;;5010756;28;20447;-47
2022/06/21 01:05:46;;;;;;;4.90;3.50;;;14.40;99.90;;;;;;5010777;28;20437;-45
2022/06/21 01:08:18;;;;;;;4.53;3.10;;;14.40;99.90;;;;;;5010584;28;20973;-45
2022/06/21 01:10:47;;;;;;;8.57;3.57;;;14.20;99.90;;;;;;4992718;28;20444;-46
2022/06/21 01:13:17;;;;;;;4.30;3.57;;;14.60;99.90;;;;;;5010996;28;20478;-46
2022/06/21 01:15:49;;;;;;;7.70;3.50;;;14.10;99.90;;;;;;5010705;28;20437;-45
2022/06/21 01:18:19;;;;;;;4.47;3.27;;;14.30;99.90;;;;;;5010624;28;20780;-44
2022/06/21 01:20:49;;;;;;;4.63;3.03;;;14.20;99.90;;;;;;5010227;28;20436;-44
2022/06/21 01:23:27;;;;;;;4.13;3.70;;;13.70;99.90;;;;;;5010459;28;20430;-44
2022/06/21 01:26:03;;;;;;;4.23;3.33;;;14.10;99.90;;;;;;5010365;28;21000;-44
2022/06/21 01:28:31;;;;;;;4.40;3.50;;;14.20;99.90;;;;;;5010136;28;20446;-46
2022/06/21 01:30:59;;;;;;;8.07;3.63;;;13.80;99.90;;;;;;5010287;28;20463;-45
2022/06/21 01:33:29;;;;;;;4.97;3.63;;;14.10;99.90;;;;;;5010266;28;20487;-45
2022/06/21 01:35:59;;;;;;;4.20;3.03;;;13.80;99.90;;;;;;5011287;28;20908;-45
2022/06/21 01:38:30;;;;;;;6.13;3.70;;;14.00;99.90;;;;;;5013263;28;20442;-46
2022/06/21 01:41:05;;;;;;;5.07;4.60;;;14.10;99.90;;;;;;5013673;28;20959;-46
2022/06/21 01:43:33;;;;;;;6.03;4.30;;;14.10;99.90;;;;;;5017350;28;20444;-47
2022/06/21 01:46:03;;;;;;;5.13;3.33;;;13.50;99.90;;;;;;5017507;28;20459;-45
2022/06/21 01:48:35;;;;;;;8.20;3.83;;;14.00;99.90;;;;;;5016979;28;20948;-46
2022/06/21 01:51:05;;;;;;;9.00;3.80;;;14.30;99.90;;;;;;5016262;28;20457;-44
2022/06/21 01:53:34;;;;;;;4.33;3.60;;;14.10;99.90;;;;;;5016311;28;20475;-45
2022/06/21 01:56:04;;;;;;;5.27;3.43;;;14.50;99.90;;;;;;5014280;28;20441;-45
2022/06/21 01:58:35;;;;;;;5.93;3.40;;;14.10;99.90;;;;;;5013585;28;20949;-45
2022/06/21 02:01:07;;;;;;;7.53;3.40;;;14.20;99.90;;;;;;5013895;28;20866;-46
2022/06/21 02:03:37;;;;;;;4.90;4.00;;;14.20;99.90;;;;;;5014023;28;20874;-46
2022/06/21 02:06:10;;;;;;;3.20;2.90;;;14.20;99.90;;;;;;5013947;28;20516;-47
2022/06/21 02:08:41;;;;;;;5.27;3.73;;;14.20;99.90;;;;;;5013632;28;20439;-46
2022/06/21 02:11:14;;;;;;;7.20;3.50;;;14.00;99.90;;;;;;4996070;28;20952;-47
2022/06/21 02:13:46;;;;;;;6.60;3.67;;;14.00;99.90;;;;;;5013563;28;20493;-46
2022/06/21 02:16:16;;;;;;;5.37;3.50;;;14.00;99.90;;;;;;5013709;28;20443;-46
2022/06/21 02:18:48;;;;;;;6.87;3.50;;;13.70;99.90;;;;;;5013139;28;20536;-46
2022/06/21 02:21:20;;;;;;;5.07;3.30;;;14.10;99.90;;;;;;5013270;28;20435;-44
2022/06/21 02:23:52;;;;;;;7.50;4.10;;;14.10;99.90;;;;;;5013552;28;20463;-45
2022/06/21 02:26:21;;;;;;;7.77;3.70;;;14.20;99.90;;;;;;5013857;28;20445;-44
2022/06/21 02:28:49;;;;;;;6.93;3.90;;;14.00;99.90;;;;;;5013774;28;20433;-45
2022/06/21 02:31:16;;;;;;;6.87;3.70;;;14.00;99.90;;;;;;5013998;28;20424;-45
2022/06/21 02:33:46;;;;;;;5.00;3.20;;;13.40;99.90;;;;;;5013510;28;20569;-47
2022/06/21 02:36:18;;;;;;;6.40;3.80;;;13.90;99.90;;;;;;5013454;28;20429;-45
2022/06/21 02:38:47;;;;;;;5.03;3.40;;;13.70;99.90;;;;;;5014053;28;20444;-45
2022/06/21 02:41:18;;;;;;;4.17;3.50;;;13.90;99.90;;;;;;5014754;28;20501;-45
2022/06/21 02:43:48;;;;;;;5.50;3.50;;;13.90;99.90;;;;;;5014323;28;20464;-45
2022/06/21 02:46:19;;;;;;;5.30;3.83;;;14.00;99.90;;;;;;4996461;28;20947;-45
2022/06/21 02:48:51;;;;;;;5.97;4.07;;;13.70;99.90;;;;;;5013601;28;20440;-45
2022/06/21 02:51:22;;;;;;;4.80;3.43;;;13.50;99.90;;;;;;4996095;28;20824;-46
2022/06/21 02:53:53;;;;;;;8.03;4.67;;;13.70;99.90;;;;;;5012918;28;20491;-46
2022/06/21 02:56:25;;;;;;;6.23;3.63;;;13.70;99.90;;;;;;5013050;28;20852;-45
2022/06/21 02:58:55;;;;;;;8.50;4.53;;;13.70;99.90;;;;;;5012578;28;20927;-45
2022/06/21 03:01:28;;;;;;;8.43;3.80;;;13.70;99.90;;;;;;5012891;28;20443;-46
2022/06/21 03:03:56;;;;;;;6.90;4.10;;;13.80;99.90;;;;;;5013324;28;20463;-45
2022/06/21 03:06:23;;;;;;;6.50;3.93;;;13.50;99.90;;;;;;4995550;28;20450;-45
2022/06/21 03:08:56;;;;;;;5.17;3.67;;;13.80;99.90;;;;;;5012735;28;20450;-44
2022/06/21 03:11:25;;;;;;;8.70;3.50;;;13.60;99.90;;;;;;5013277;28;20570;-45
2022/06/21 03:13:52;;;;;;;6.93;3.60;;;13.70;99.90;;;;;;5012753;28;20482;-46
2022/06/21 03:16:19;;;;;;;7.00;3.90;;;13.70;99.90;;;;;;5013248;28;20444;-45
2022/06/21 03:18:51;;;;;;;8.90;4.50;;;13.70;99.90;;;;;;5012645;28;20632;-45
2022/06/21 03:21:24;;;;;;;6.03;4.33;;;13.40;99.90;;;;;;5013227;28;20470;-47
2022/06/21 03:23:51;;;;;;;5.83;3.70;;;13.70;99.90;;;;;;5012561;28;20454;-46
2022/06/21 03:26:18;;;;;;;5.00;3.33;;;13.30;99.90;;;;;;4995108;28;20534;-46
2022/06/21 03:28:46;;;;;;;8.13;3.63;;;13.80;99.90;;;;;;5012556;28;20507;-45
2022/06/21 03:31:19;;;;;;;7.70;4.30;;;13.70;99.90;;;;;;5012928;28;20950;-45
2022/06/21 03:33:50;;;;;;;9.63;4.30;;;13.80;99.90;;;;;;5012020;28;20480;-44
2022/06/21 03:36:21;;;;;;;6.13;3.33;;;13.80;99.90;;;;;;5011949;28;20436;-45
2022/06/21 03:38:50;;;;;;;6.87;4.47;;;13.70;99.90;;;;;;5011531;28;20449;-46
2022/06/21 03:44:10;;;;;;;5.77;3.70;;;13.80;99.90;;;;;;5011822;28;20566;-46
2022/06/21 03:46:42;;;;;;;6.10;3.80;;;13.70;99.90;;;;;;5011801;28;20438;-44
2022/06/21 03:49:18;;;;;;;7.13;4.30;;;13.90;99.90;;;;;;5011310;28;20435;-45
2022/06/21 03:51:47;;;;;;;6.47;3.50;;;13.90;99.90;;;;;;5011837;28;20779;-46
2022/06/21 03:54:19;;;;;;;8.43;3.47;;;13.70;99.90;;;;;;5012013;28;20478;-44
2022/06/21 03:56:51;;;;;;;7.43;4.47;;;14.00;99.90;;;;;;5012218;28;20446;-45
2022/06/21 03:59:24;;;;;;;5.17;3.37;;;13.60;99.90;;;;;;5012184;28;20860;-44
2022/06/21 04:01:56;;;;;;;7.27;3.60;;;14.30;99.90;;;;;;5012279;28;20801;-44
2022/06/21 04:04:29;;;;;;;5.27;3.77;;;14.30;99.90;;;;;;5012116;28;20460;-45
2022/06/21 04:07:00;;;;;;;7.77;4.13;;;14.30;99.90;;;;;;5012733;28;20435;-45
2022/06/21 04:09:35;;;;;;;6.40;3.33;;;14.30;99.90;;;;;;5011856;28;20532;-46
2022/06/21 04:12:09;;;;;;;7.13;3.90;;;14.50;99.90;;;;;;5011774;28;20526;-45
2022/06/21 04:14:40;;;;;;;10.50;4.20;;;14.30;99.90;;;;;;5011533;28;20480;-45
2022/06/21 04:17:14;;;;;;;9.00;3.80;;;14.40;99.90;;;;;;5011457;28;20439;-44
2022/06/21 04:19:48;;;;;;;10.53;3.70;;;14.50;99.90;;;;;;5011119;28;20462;-47
2022/06/21 04:22:22;;;;;;;8.97;4.30;;;14.60;99.90;;;;;;5011415;28;20949;-46
2022/06/21 04:24:56;;;;;;;7.00;3.80;;;14.70;99.90;;;;;;5011374;28;20470;-45
2022/06/21 04:27:30;;;;;;;8.40;4.20;;;14.90;99.90;;;;;;5011342;28;20534;-45
2022/06/21 04:30:03;;;;;;;7.70;3.63;;;15.10;99.90;;;;;;5010648;28;20932;-46
2022/06/21 04:32:34;;;;;;;5.90;3.40;;;15.10;99.90;;;;;;5011090;28;20430;-47
2022/06/21 04:35:06;;;;;;;6.67;3.30;;;15.20;99.90;;;;;;5010971;28;20486;-47
2022/06/21 04:37:38;;;;;;;5.83;3.40;;;15.20;99.90;;;;;;5011114;28;20451;-47
2022/06/21 04:40:10;;;;;;;4.77;2.93;;;15.30;99.90;;;;;;5010807;28;20435;-45
2022/06/21 04:42:43;;;;;;;8.10;4.10;;;15.20;99.90;;;;;;5010903;28;20800;-46
2022/06/21 04:45:18;;;;;;;10.23;4.57;;;15.20;99.90;;;;;;5010816;28;20557;-48
2022/06/21 04:47:49;;;;;;;9.40;4.00;;;15.10;99.90;;;;;;5010881;28;20516;-47
2022/06/21 04:50:23;;;;;;;6.57;4.13;;;15.10;99.90;;;;;;5010741;28;20476;-45
2022/06/21 04:52:56;;;;;;;7.27;4.30;;;15.10;99.90;;;;;;5010635;28;20670;-46
2022/06/21 04:55:29;;;;;;;8.00;4.20;;;15.10;99.90;;;;;;5010616;28;20590;-44
2022/06/21 04:57:55;;;;;;;9.70;4.60;;;15.10;99.90;;;;;;4992853;28;20503;-45
2022/06/21 05:00:22;;;;;;;6.07;3.63;;;15.10;99.90;;;;;;5010560;28;20505;-46
2022/06/21 05:02:53;;;;;;;9.37;5.30;;;15.10;99.90;;;;;;5010792;28;20438;-45
2022/06/21 05:05:25;;;;;;;9.30;4.43;;;15.50;99.90;;;;;;5010647;28;20440;-45
2022/06/21 05:07:55;;;;;;;8.93;3.77;;;15.30;99.90;;;;;;5010704;28;20476;-45
2022/06/21 05:10:26;;;;;;;7.63;4.13;;;15.30;99.90;;;;;;5010401;28;20452;-45
2022/06/21 05:12:55;;;;;;;10.17;3.93;;;15.60;99.90;;;;;;5010759;28;20793;-46
2022/06/21 05:15:25;;;;;;;5.87;4.60;;;15.30;99.90;;;;;;5010388;28;20505;-45
2022/06/21 05:17:56;;;;;;;11.00;4.30;;;15.50;99.90;;;;;;5014466;28;20434;-46
2022/06/21 05:20:32;;;;;;;7.83;4.33;;;15.60;99.90;;;;;;5014328;28;20443;-47
2022/06/21 05:23:01;;;;;;;8.20;4.00;;;15.80;99.90;;;;;;5015071;28;20451;-48
2022/06/21 05:25:32;;;;;;;6.07;3.77;;;15.90;99.90;;;;;;5015002;28;20501;-45
2022/06/21 05:28:05;;;;;;;11.30;3.67;;;16.00;99.90;;;;;;5014967;28;20449;-48
2022/06/21 05:30:41;;;;;;;6.00;3.70;;;16.10;99.90;;;;;;4997118;28;20483;-45
2022/06/21 05:33:15;;;;;;;10.60;4.67;;;16.10;99.90;;;;;;5014695;28;20440;-45
2022/06/21 05:35:44;;;;;;;4.67;3.30;;;16.10;99.90;;;;;;5014460;28;20491;-48
2022/06/21 05:38:14;;;;;;;9.47;3.90;;;16.20;99.90;;;;;;5014050;28;20763;-45
2022/06/21 05:40:47;;;;;;;5.23;3.50;;;16.40;99.90;;;;;;5013785;28;20547;-46
2022/06/21 05:43:17;;;;;;;5.83;3.43;;;16.50;99.90;;;;;;5014099;28;20436;-47
2022/06/21 05:45:51;;;;;;;6.57;3.40;;;16.60;99.90;;;;;;5013760;28;20448;-46
2022/06/21 05:48:23;;;;;;;5.77;3.20;;;16.60;99.90;;;;;;5014351;28;20438;-45
2022/06/21 05:50:51;;;;;;;5.47;3.17;;;16.60;99.90;;;;;;5014104;28;20459;-47
2022/06/21 05:53:28;;;;;;;6.13;3.47;;;16.80;99.90;;;;;;4995740;28;20953;-47
2022/06/21 05:55:55;;;;;;;7.40;3.20;;;16.30;99.90;;;;;;5014107;28;20569;-46
2022/06/21 05:58:27;;;;;;;6.03;3.40;;;17.00;99.90;;;;;;5014155;28;20432;-46
2022/06/21 06:01:01;;;;;;;5.80;3.10;;;17.00;99.90;;;;;;5014271;28;20445;-47
2022/06/21 06:03:34;;;;;;;5.37;3.37;;;17.10;99.90;;;;;;5014289;28;20764;-47
2022/06/21 06:06:05;;;;;;;6.60;3.00;;;17.10;99.80;;;;;;5014009;28;20460;-46
2022/06/21 06:08:35;;;;;;;10.47;3.40;;;17.40;99.80;;;;;;5013632;28;20809;-46
2022/06/21 06:11:05;;;;;;;7.37;2.77;;;17.30;99.50;;;;;;5014057;28;20456;-47
2022/06/21 06:13:41;;;;;;;10.00;3.60;;;17.40;99.30;;;;;;5014283;28;20756;-45
2022/06/21 06:16:28;;;;;;;4.50;2.50;;;17.50;99.00;;;;;;5013812;28;20471;-46
2022/06/21 06:19:01;;;;;;;10.47;3.47;;;17.50;98.50;;;;;;5013146;28;20523;-47
2022/06/21 06:21:35;;;;;;;5.57;2.50;;;17.50;98.40;;;;;;5013499;28;20754;-47
2022/06/21 06:24:07;;;;;;;6.70;2.60;;;17.60;98.10;;;;;;5013638;28;20466;-46
2022/06/21 06:26:39;;;;;;;7.17;2.80;;;17.60;98.00;;;;;;5013021;28;20438;-46
2022/06/21 06:29:12;;;;;;;8.70;2.83;;;17.60;97.50;;;;;;4995777;28;20437;-47
2022/06/21 06:31:43;;;;;;;5.77;2.53;;;17.60;97.40;;;;;;4996295;28;20956;-48
2022/06/21 06:34:13;;;;;;;6.20;3.00;;;17.50;97.30;;;;;;5013808;28;20448;-46
2022/06/21 06:36:47;;;;;;;8.30;2.70;;;17.70;97.20;;;;;;5013216;28;20487;-47
2022/06/21 06:39:23;;;;;;;9.47;2.97;;;17.80;97.10;;;;;;5013024;28;20921;-47
2022/06/21 06:41:56;;;;;;;6.67;2.80;;;18.10;97.40;;;;;;5013729;28;20814;-48
2022/06/21 06:44:23;;;;;;;7.27;3.20;;;17.60;97.10;;;;;;5036553;23;20588;-53
2022/06/21 06:46:52;;;;;;;5.20;3.03;;;17.90;97.20;;;;;;5013448;28;20441;-53
2022/06/21 06:49:23;;;;;;;6.80;2.57;;;18.00;97.20;;;;;;5012855;28;20441;-54
2022/06/21 06:51:58;;;;;;;10.33;5.43;;;18.00;97.10;;;;;;5012899;28;20436;-53
2022/06/21 06:54:34;;;;;;;6.40;3.13;;;18.40;97.00;;;;;;5013353;28;20460;-53
2022/06/21 06:57:06;;;;;;;7.80;3.33;;;18.10;96.80;;;;;;5013152;28;20449;-53
2022/06/21 06:59:32;;;;;;;6.77;2.43;;;18.30;96.90;;;;;;5013106;28;20933;-53
2022/06/21 07:02:03;;;;;;;6.53;2.70;;;18.10;96.60;;;;;;5013326;28;20527;-53
2022/06/21 07:04:36;;;;;;;7.23;2.70;;;18.00;96.20;;;;;;5012980;28;20896;-53
2022/06/21 07:07:08;;;;;;;6.07;2.80;;;17.90;96.20;;;;;;4995700;28;20423;-53
2022/06/21 07:09:41;;;;;;;8.83;2.50;;;17.90;96.10;;;;;;5012824;28;20451;-53
2022/06/21 07:12:14;;;;;;;4.03;1.97;;;18.00;96.20;;;;;;5013326;28;20488;-53
2022/06/21 07:14:41;;;;;;;4.53;2.37;;;17.90;95.80;;;;;;5012801;28;20969;-54
2022/06/21 07:17:16;;;;;;;6.80;2.50;;;17.80;95.80;;;;;;5013168;28;20466;-54
2022/06/21 07:19:43;;;;;;;3.50;2.30;;;17.90;96.10;;;;;;5012836;28;20448;-54
2022/06/21 07:22:16;;;;;;;6.83;2.37;;;17.80;96.20;;;;;;5012855;28;20948;-54
2022/06/21 07:24:47;;;;;;;6.50;2.87;;;17.90;96.20;;;;;;5013063;28;20466;-53
2022/06/21 07:27:17;;;;;;;8.43;2.90;;;17.90;96.00;;;;;;5013488;28;20433;-54
2022/06/21 07:29:50;;;;;;;4.70;2.40;;;17.90;95.60;;;;;;5013004;28;20488;-54
2022/06/21 07:32:22;;;;;;;5.30;2.03;;;17.50;95.40;;;;;;5012813;28;20939;-54
2022/06/21 07:34:53;;;;;;;4.40;2.10;;;18.30;95.60;;;;;;5012669;28;20463;-52
2022/06/21 07:37:26;;;;;;;7.20;2.93;;;18.30;95.20;;;;;;5012429;28;20445;-53
2022/06/21 07:39:58;;;;;;;5.53;2.30;;;18.20;94.40;;;;;;5011864;28;20430;-52
2022/06/21 07:42:30;;;;;;;5.67;2.17;;;18.20;94.30;;;;;;5012244;28;20954;-53
2022/06/21 07:45:02;;;;;;;9.90;4.70;;;18.50;94.00;;;;;;5012388;28;20491;-53
2022/06/21 07:47:35;;;;;;;4.60;2.20;;;18.30;94.00;;;;;;5011825;28;20540;-52
2022/06/21 07:50:09;;;;;;;4.90;2.23;;;18.00;93.70;;;;;;5012027;28;20434;-52
2022/06/21 07:52:42;;;;;;;10.63;3.10;;;18.40;93.80;;;;;;4995028;28;20459;-51
2022/06/21 07:55:18;;;;;;;4.07;2.30;;;18.50;93.80;;;;;;5012146;28;20478;-52
2022/06/21 07:57:51;;;;;;;4.77;2.27;;;18.50;93.50;;;;;;5012017;28;20435;-52
2022/06/21 08:00:20;;;;;;;7.03;2.00;;;18.60;92.30;;;;;;5012149;28;20444;-53
2022/06/21 08:08:33;;;;;;;5.10;2.10;;;19.00;91.90;;;;;;5011813;28;20445;-52
2022/06/21 08:11:04;;;;;;;4.20;1.80;;;18.50;90.50;;;;;;5012472;28;20441;-52
2022/06/21 08:13:31;;;;;;;5.30;1.87;;;18.90;90.30;;;;;;5011285;28;20436;-52
2022/06/21 08:16:03;;;;;;;5.50;1.90;;;18.70;90.50;;;;;;5011768;28;20858;-52
2022/06/21 08:18:37;;;;;;;8.70;2.20;;;18.80;90.10;;;;;;5011719;28;20492;-52
2022/06/21 08:21:08;;;;;;;3.70;1.97;;;18.70;90.00;;;;;;5012083;28;20455;-52
2022/06/21 08:23:41;;;;;;;6.47;2.00;;;18.80;90.00;;;;;;5012075;28;20437;-52
2022/06/21 08:26:14;;;;;;;5.83;2.13;;;18.90;89.40;;;;;;5011981;28;20435;-52
2022/06/21 08:28:48;;;;;;;4.93;1.57;;;18.90;89.20;;;;;;5011913;28;20794;-52
2022/06/21 08:31:20;;;;;;;7.33;2.13;;;19.20;89.50;;;;;;5011825;28;20998;-52
2022/06/21 08:33:54;;;;;;;5.53;1.80;;;19.00;89.00;;;;;;5011671;28;20570;-52
2022/06/21 08:36:25;;;;;;;7.23;2.50;;;19.10;88.00;;;;;;5011916;28;20483;-51
2022/06/21 08:38:58;;;;;;;4.43;1.90;;;19.20;88.10;;;;;;5009153;28;20482;-53
2022/06/21 08:42:06;;;;;;;6.30;2.13;;;18.80;84.90;;;;;;5010981;28;20524;-52
2022/06/21 08:48:30;;;;;;;5.90;1.90;;;19.10;86.60;;;;;;5007643;28;20453;-53
2022/06/21 08:51:14;;;;;;;4.10;1.93;;;19.30;86.30;;;;;;4993430;28;20515;-53
2022/06/21 08:53:54;;;;;;;9.63;1.77;;;19.30;85.90;;;;;;5011305;28;20442;-53
2022/06/21 08:56:27;;;;;;;5.13;2.40;;;19.30;85.50;;;;;;5011858;28;20479;-53
2022/06/21 08:59:06;;;;;;;3.87;1.73;;;19.20;85.80;;;;;;5011080;28;20458;-53
2022/06/21 09:01:48;;;;;;;4.90;2.20;;;19.50;85.10;;;;;;5011105;28;20436;-52
2022/06/21 09:04:41;;;;;;;4.00;1.47;;;19.60;84.30;;;;;;5011067;28;20510;-53
2022/06/21 09:07:32;;;;;;;4.13;1.63;;;19.50;82.50;;;;;;5007839;28;20456;-52
2022/06/21 09:10:12;;;;;;;5.30;1.67;;;19.50;82.20;;;;;;5010385;28;20534;-52
2022/06/21 09:12:51;;;;;;;7.50;1.70;;;19.40;82.50;;;;;;5010923;28;20444;-52
2022/06/21 09:15:33;;;;;;;2.67;1.50;;;19.50;82.90;;;;;;5011053;28;20460;-53
2022/06/21 09:18:10;;;;;;;9.17;1.97;;;19.60;83.50;;;;;;5011428;28;20467;-52
2022/06/21 09:20:44;;;;;;;5.17;1.67;;;19.70;84.10;;;;;;5010924;28;20438;-52
2022/06/21 09:23:22;;;;;;;4.13;1.43;;;19.60;84.00;;;;;;5011300;28;20812;-52
2022/06/21 09:25:54;;;;;;;6.07;1.50;;;19.90;83.30;;;;;;5010772;28;20452;-53
2022/06/21 09:28:34;;;;;;;4.03;1.50;;;19.90;82.90;;;;;;5010382;28;20443;-51
2022/06/21 09:31:05;;;;;;;6.73;1.63;;;20.00;82.50;;;;;;5008370;28;20451;-52
2022/06/21 09:33:40;;;;;;;4.17;1.60;;;20.40;83.50;;;;;;4990864;28;20433;-53
2022/06/21 09:36:15;;;;;;;9.83;2.30;;;20.10;82.70;;;;;;4991084;28;20813;-53
2022/06/21 09:38:48;;;;;;;3.73;1.47;;;19.80;81.60;;;;;;4991072;28;20440;-52
2022/06/21 09:41:21;;;;;;;4.00;1.50;;;20.20;81.60;;;;;;4991287;28;20927;-52
2022/06/21 09:44:02;;;;;;;3.63;1.70;;;20.20;81.10;;;;;;4991112;28;20982;-53
2022/06/21 09:46:38;;;;;;;4.57;1.80;;;20.20;79.90;;;;;;4997583;28;20436;-52
2022/06/21 09:49:12;;;;;;;10.03;2.30;;;20.30;81.10;;;;;;5010350;28;20440;-52
2022/06/21 09:51:45;;;;;;;4.20;1.30;;;20.00;81.10;;;;;;5010765;28;20448;-52
2022/06/21 09:54:22;;;;;;;3.47;1.57;;;20.30;81.30;;;;;;5010989;28;20553;-51
2022/06/21 09:56:55;;;;;;;6.43;2.40;;;20.30;80.70;;;;;;5010490;28;20487;-53
2022/06/21 09:59:29;;;;;;;10.80;2.40;;;20.30;81.10;;;;;;5010269;28;20507;-53
2022/06/21 10:02:02;;;;;;;5.27;2.00;;;20.40;80.50;;;;;;5011244;28;20432;-52
2022/06/21 10:04:35;;;;;;;3.70;1.67;;;20.40;80.40;;;;;;5014506;28;20899;-52
2022/06/21 10:07:13;;;;;;;6.50;2.50;;;20.60;80.60;;;;;;5013611;28;20437;-52
2022/06/21 10:09:59;;;;;;;4.50;1.80;;;20.50;80.30;;;;;;5011734;28;20448;-53
2022/06/21 10:12:38;;;;;;;7.07;2.20;;;20.50;79.40;;;;;;4993940;28;20457;-52
2022/06/21 10:15:33;;;;;;;5.80;1.90;;;20.40;78.30;;;;;;5012688;28;20468;-53
2022/06/21 10:18:23;;;;;;;4.87;1.60;;;20.70;78.30;;;;;;4992523;28;20460;-53
2022/06/21 10:21:07;;;;;;;5.17;2.03;;;20.70;77.70;;;;;;5012489;28;20760;-53
2022/06/21 10:23:54;;;;;;;4.57;1.47;;;20.70;77.20;;;;;;5013942;28;20817;-54
2022/06/21 10:26:45;;;;;;;4.23;1.60;;;20.40;75.80;;;;;;5013419;28;20430;-53
2022/06/21 10:29:36;;;;;;;3.43;1.53;;;20.90;76.00;;;;;;5013599;28;20444;-53
2022/06/21 10:32:38;;;;;;;5.53;1.77;;;20.90;74.50;;;;;;5013602;28;20442;-52
2022/06/21 10:35:31;;;;;;;5.90;1.83;;;20.90;75.00;;;;;;5013729;28;20457;-53
2022/06/21 10:38:14;;;;;;;5.10;1.60;;;20.90;75.90;;;;;;4995961;28;20622;-53
2022/06/21 10:40:54;;;;;;;4.10;1.43;;;20.70;75.70;;;;;;5013053;28;20456;-53
2022/06/21 10:43:40;;;;;;;6.70;1.63;;;21.00;75.40;;;;;;5014028;28;20461;-52
2022/06/21 10:46:11;;;;;;;3.60;1.20;;;21.10;75.00;;;;;;5013659;28;20433;-53
2022/06/21 10:49:15;;;;;;;8.33;2.10;;;21.10;74.70;;;;;;5013098;28;20817;-52
2022/06/21 10:52:00;;;;;;;3.80;1.40;;;21.10;73.90;;;;;;5013547;28;20473;-53
2022/06/21 10:54:45;;;;;;;4.80;1.40;;;21.00;72.20;;;;;;5013542;28;20461;-53
2022/06/21 10:57:18;;;;;;;5.60;1.53;;;21.20;71.70;;;;;;5012857;28;20479;-53
2022/06/21 11:03:06;;;;;;;4.37;2.20;;;21.20;71.80;;;;;;5013464;28;20514;-53
2022/06/21 11:05:44;;;;;;;3.80;1.80;;;21.20;71.50;;;;;;5013051;28;20778;-53
2022/06/21 11:08:18;;;;;;;3.93;1.80;;;21.30;71.30;;;;;;5013273;28;20773;-53
2022/06/21 11:10:54;;;;;;;8.63;1.53;;;21.40;71.50;;;;;;5013010;28;20438;-52
2022/06/21 11:13:23;;;;;;;5.13;1.83;;;21.40;71.10;;;;;;5012350;28;20450;-53
2022/06/21 11:16:01;;;;;;;6.47;1.97;;;21.50;71.00;;;;;;5012703;28;20485;-53
2022/06/21 11:18:45;;;;;;;2.93;1.17;;;21.30;69.50;;;;;;5011606;28;20441;-52
2022/06/21 11:21:22;;;;;;;6.63;1.73;;;21.50;67.50;;;;;;5012807;28;20491;-53
2022/06/21 11:24:00;;;;;;;2.87;1.63;;;21.50;67.10;;;;;;5012569;28;20445;-52
2022/06/21 11:26:33;;;;;;;3.73;1.50;;;21.50;66.00;;;;;;5012787;28;20442;-54
2022/06/21 11:29:14;;;;;;;6.10;1.60;;;21.50;66.40;;;;;;5012496;28;20466;-51
2022/06/21 11:31:47;;;;;;;7.43;1.40;;;21.50;65.80;;;;;;5013098;28;20458;-52
2022/06/21 11:34:23;;;;;;;4.00;1.40;;;21.50;66.20;;;;;;5012337;28;20470;-53
2022/06/21 11:37:00;;;;;;;3.63;1.37;;;21.50;65.20;;;;;;5012106;28;20578;-52
2022/06/21 11:39:35;;;;;;;3.13;1.10;;;21.50;65.10;;;;;;5011674;28;20446;-54
2022/06/21 11:42:09;;;;;;;3.43;1.13;;;21.60;64.50;;;;;;5012327;28;20450;-52
2022/06/21 11:45:17;;;;;;;2.33;1.13;;;21.60;62.10;;;;;;5012172;28;20470;-52
2022/06/21 11:48:23;;;;;;;4.50;1.37;;;21.60;62.20;;;;;;5012154;28;20802;-53
2022/06/21 11:51:03;;;;;;;2.70;1.27;;;21.70;62.80;;;;;;5012040;28;20957;-54
2022/06/21 11:53:49;;;;;;;4.93;1.83;;;21.60;61.30;;;;;;5012221;28;20450;-53
2022/06/21 11:56:24;;;;;;;4.07;1.30;;;21.60;62.00;;;;;;5012665;28;20808;-53
2022/06/21 11:58:58;;;;;;;2.43;1.40;;;21.60;62.70;;;;;;5011916;28;20957;-52
2022/06/21 12:01:32;;;;;;;3.20;1.73;;;21.90;63.00;;;;;;5012175;28;20640;-52
2022/06/21 12:04:11;;;;;;;3.47;1.37;;;21.90;61.90;;;;;;5010846;28;20463;-52
2022/06/21 12:06:44;;;;;;;2.90;1.40;;;21.80;60.50;;;;;;5011923;28;20656;-51
2022/06/21 12:09:20;;;;;;;7.43;2.53;;;22.00;59.90;;;;;;5011574;28;20454;-52
2022/06/21 12:12:05;;;;;;;6.40;1.63;;;22.10;60.00;;;;;;5012418;28;21015;-51
2022/06/21 12:14:45;;;;;;;3.50;1.60;;;22.40;61.30;;;;;;5011416;28;20452;-52
2022/06/21 12:17:20;;;;;;;3.47;1.60;;;22.20;60.50;;;;;;5011816;28;20483;-52
2022/06/21 12:19:50;;;;;;;3.93;1.50;;;22.30;60.50;;;;;;5011355;28;20489;-51
2022/06/21 12:22:24;;;;;;;4.33;3.20;;;22.20;60.40;;;;;;5011873;28;20440;-52
2022/06/21 12:24:52;;;;;;;2.73;1.27;;;22.30;60.00;;;;;;5011041;28;20549;-52
2022/06/21 12:27:19;;;;;;;2.50;1.20;;;22.40;60.00;;;;;;5011777;28;20890;-52
2022/06/21 12:29:49;;;;;;;3.00;1.10;;;22.40;60.00;;;;;;5011448;28;20448;-52
2022/06/21 12:32:23;;;;;;;3.63;1.30;;;22.40;60.40;;;;;;4993745;28;20539;-52
2022/06/21 12:35:01;;;;;;;2.67;1.30;;;22.00;59.80;;;;;;4994051;28;20469;-53
2022/06/21 12:37:35;;;;;;;3.03;1.20;;;22.50;60.00;;;;;;4993341;28;20507;-52
2022/06/21 12:40:17;;;;;;;5.20;1.60;;;22.50;59.90;;;;;;4990234;28;20472;-52
2022/06/21 12:43:06;;;;;;;4.03;1.53;;;22.50;58.80;;;;;;4990584;28;20538;-52
2022/06/21 12:45:45;;;;;;;3.50;1.30;;;22.70;58.40;;;;;;4991991;28;20996;-52
2022/06/21 12:48:41;;;;;;;4.80;1.40;;;22.50;58.90;;;;;;4991824;28;20441;-52
2022/06/21 12:51:16;;;;;;;5.03;1.37;;;22.50;58.50;;;;;;4991358;28;20492;-52
2022/06/21 12:54:26;;;;;;;4.67;1.90;;;22.60;58.60;;;;;;4991445;28;20445;-52
2022/06/21 12:57:16;;;;;;;3.17;1.13;;;22.70;58.40;;;;;;4991368;28;20997;-53
2022/06/21 13:00:01;;;;;;;5.70;1.60;;;22.60;58.30;;;;;;4991356;28;20437;-53
2022/06/21 13:02:45;;;;;;;4.30;1.80;;;22.80;58.20;;;;;;4991291;28;20441;-53
2022/06/21 13:05:32;;;;;;;2.03;1.10;;;22.80;58.40;;;;;;4991403;28;20464;-52
2022/06/21 13:08:24;;;;;;;5.23;1.33;;;22.90;57.80;;;;;;4991866;28;20881;-53
2022/06/21 13:10:59;;;;;;;2.33;1.53;;;22.90;57.80;;;;;;4991312;28;20493;-52
2022/06/21 13:13:42;;;;;;;4.57;2.20;;;23.00;57.70;;;;;;4974272;28;20454;-52
2022/06/21 13:16:25;;;;;;;4.60;1.60;;;23.00;57.70;;;;;;4991110;28;20463;-52
2022/06/21 13:19:16;;;;;;;3.57;1.30;;;23.10;57.60;;;;;;4990987;28;20442;-52
2022/06/21 13:21:56;;;;;;;3.23;1.37;;;23.20;57.50;;;;;;4991001;28;20429;-52
2022/06/21 13:24:45;;;;;;;3.27;1.47;;;23.30;57.30;;;;;;4974037;28;20482;-51
2022/06/21 13:27:24;;;;;;;3.10;1.20;;;23.30;55.30;;;;;;4973664;28;20446;-53
2022/06/21 13:30:18;;;;;;;2.63;1.23;;;23.20;55.80;;;;;;4990808;28;20443;-53
2022/06/21 13:32:52;;;;;;;2.10;1.10;;;23.30;56.00;;;;;;4973458;28;20468;-53
2022/06/21 13:35:26;;;;;;;3.10;1.30;;;23.20;56.00;;;;;;4973245;28;20505;-53
2022/06/21 13:38:00;;;;;;;3.20;1.27;;;23.20;55.80;;;;;;4974057;28;20473;-52